createdAt,value
2023-10-17T00:00:29.097Z,4.20
2023-10-17T00:02:09.182Z,4.10
2023-10-17T00:03:41.385Z,4.10
2023-10-17T00:05:15.850Z,4.10
2023-10-17T00:06:48.824Z,4.00
2023-10-17T00:08:21.794Z,4.00
2023-10-17T00:09:55.979Z,4.00
2023-10-17T00:11:34.621Z,4.00
2023-10-17T00:13:24.756Z,3.90
2023-10-17T00:14:59.550Z,3.90
2023-10-17T00:16:34.299Z,3.90
2023-10-17T00:18:13.139Z,3.90
2023-10-17T00:19:46.712Z,3.90
2023-10-17T00:21:22.957Z,3.90
2023-10-17T00:22:56.082Z,3.90
2023-10-17T00:24:29.328Z,3.90
2023-10-17T00:26:05.360Z,4.00
2023-10-17T00:27:38.311Z,4.00
2023-10-17T00:29:11.584Z,4.00
2023-10-17T00:30:44.546Z,3.90
2023-10-17T00:32:16.496Z,4.00
2023-10-17T00:33:58.891Z,3.90
2023-10-17T00:35:37.977Z,3.90
2023-10-17T00:37:12.481Z,3.90
2023-10-17T00:38:44.898Z,3.90
2023-10-17T00:40:35.602Z,3.90
2023-10-17T00:42:18.236Z,3.90
2023-10-17T00:43:54.700Z,3.90
2023-10-17T00:45:30.773Z,3.80
2023-10-17T00:47:04.328Z,3.80
2023-10-17T00:48:36.726Z,3.80
2023-10-17T00:50:14.246Z,3.70
2023-10-17T00:51:46.710Z,3.70
2023-10-17T00:53:21.443Z,3.70
2023-10-17T00:54:55.123Z,3.70
2023-10-17T00:56:28.274Z,3.60
2023-10-17T00:58:00.778Z,3.70
2023-10-17T00:59:34.621Z,3.60
2023-10-17T01:01:10.946Z,3.60
2023-10-17T01:02:47.228Z,3.60
2023-10-17T01:04:20.726Z,3.60
2023-10-17T01:06:11.681Z,3.50
2023-10-17T01:07:44.625Z,3.50
2023-10-17T01:09:19.174Z,3.50
2023-10-17T01:10:52.243Z,3.40
2023-10-17T01:12:28.076Z,3.40
2023-10-17T01:14:01.934Z,3.40
2023-10-17T01:15:34.237Z,3.30
2023-10-17T01:17:09.247Z,3.40
2023-10-17T01:18:42.510Z,3.40
2023-10-17T01:20:20.381Z,3.40
2023-10-17T01:21:53.391Z,3.30
2023-10-17T01:23:25.357Z,3.30
2023-10-17T01:25:00.185Z,3.30
2023-10-17T01:26:32.215Z,3.30
2023-10-17T01:28:07.882Z,3.30
2023-10-17T01:29:42.825Z,3.30
2023-10-17T01:31:17.227Z,3.30
2023-10-17T01:32:50.078Z,3.30
2023-10-17T01:34:23.089Z,3.40
2023-10-17T01:35:57.023Z,3.40
2023-10-17T01:37:30.000Z,3.50
2023-10-17T01:39:02.091Z,3.50
2023-10-17T01:40:36.489Z,3.50
2023-10-17T01:42:09.939Z,3.50
2023-10-17T01:43:46.882Z,3.60
2023-10-17T01:45:22.371Z,3.60
2023-10-17T01:46:55.389Z,3.50
2023-10-17T01:48:28.076Z,3.50
2023-10-17T01:50:02.027Z,3.50
2023-10-17T01:51:35.130Z,3.50
2023-10-17T01:53:13.692Z,3.40
2023-10-17T01:54:49.089Z,3.40
2023-10-17T01:56:26.851Z,3.40
2023-10-17T01:58:00.785Z,3.40
2023-10-17T01:59:35.916Z,3.30
2023-10-17T02:01:13.232Z,3.30
2023-10-17T02:02:45.281Z,3.20
2023-10-17T02:04:19.917Z,3.20
2023-10-17T02:05:52.042Z,3.20
2023-10-17T02:07:25.624Z,3.20
2023-10-17T02:08:59.703Z,3.20
2023-10-17T02:10:33.670Z,3.20
2023-10-17T02:12:09.746Z,3.20
2023-10-17T02:13:43.872Z,3.20
2023-10-17T02:15:20.828Z,3.20
2023-10-17T02:16:54.197Z,3.20
2023-10-17T02:18:27.223Z,3.20
2023-10-17T02:20:00.286Z,3.20
2023-10-17T02:21:33.281Z,3.20
2023-10-17T02:23:10.959Z,3.20
2023-10-17T02:24:43.887Z,3.30
2023-10-17T02:26:16.965Z,3.30
2023-10-17T02:27:51.714Z,3.30
2023-10-17T02:29:25.715Z,3.30
2023-10-17T02:30:59.660Z,3.30
2023-10-17T02:32:32.933Z,3.30
2023-10-17T02:34:10.446Z,3.30
2023-10-17T02:35:54.678Z,3.30
2023-10-17T02:37:31.668Z,3.20
2023-10-17T02:39:04.806Z,3.20
2023-10-17T02:40:39.642Z,3.10
2023-10-17T02:42:12.650Z,3.10
2023-10-17T02:43:47.250Z,3.00
2023-10-17T02:45:26.049Z,3.00
2023-10-17T02:46:59.791Z,2.90
2023-10-17T02:48:38.985Z,2.90
2023-10-17T02:50:23.546Z,2.90
2023-10-17T02:51:55.977Z,2.90
2023-10-17T02:53:31.439Z,2.80
2023-10-17T02:55:09.982Z,2.80
2023-10-17T02:56:48.350Z,2.70
2023-10-17T02:58:20.448Z,2.70
2023-10-17T02:59:57.768Z,2.60
2023-10-17T03:01:31.719Z,2.60
2023-10-17T03:03:13.403Z,2.70
2023-10-17T03:04:45.507Z,2.60
2023-10-17T03:06:19.493Z,2.60
2023-10-17T03:07:52.801Z,2.60
2023-10-17T03:09:44.772Z,2.50
2023-10-17T03:11:18.729Z,2.50
2023-10-17T03:13:04.636Z,2.50
2023-10-17T03:14:51.589Z,2.40
2023-10-17T03:16:27.612Z,2.40
2023-10-17T03:18:02.189Z,2.40
2023-10-17T03:19:36.404Z,2.40
2023-10-17T03:21:09.591Z,2.40
2023-10-17T03:22:42.594Z,2.40
2023-10-17T03:24:14.796Z,2.40
2023-10-17T03:25:47.708Z,2.40
2023-10-17T03:27:28.614Z,2.40
2023-10-17T03:29:01.270Z,2.50
2023-10-17T03:30:34.224Z,2.50
2023-10-17T03:32:12.792Z,2.50
2023-10-17T03:33:51.390Z,2.50
2023-10-17T03:35:23.399Z,2.50
2023-10-17T03:36:56.505Z,2.50
2023-10-17T03:38:28.709Z,2.50
2023-10-17T03:40:16.133Z,2.50
2023-10-17T03:41:49.533Z,2.60
2023-10-17T03:43:23.602Z,2.60
2023-10-17T03:44:55.782Z,2.60
2023-10-17T03:46:36.307Z,2.60
2023-10-17T03:48:14.770Z,2.60
2023-10-17T03:49:49.563Z,2.60
2023-10-17T03:51:23.385Z,2.70
2023-10-17T03:52:56.635Z,2.80
2023-10-17T03:54:29.900Z,2.80
2023-10-17T03:56:02.274Z,2.90
2023-10-17T03:57:40.050Z,2.90
2023-10-17T03:59:19.799Z,2.90
2023-10-17T04:00:52.076Z,2.90
2023-10-17T04:02:25.967Z,3.00
2023-10-17T04:04:07.383Z,3.00
2023-10-17T04:05:47.081Z,3.00
2023-10-17T04:07:21.047Z,3.00
2023-10-17T04:09:16.561Z,3.10
2023-10-17T04:10:51.011Z,3.00
2023-10-17T04:12:33.041Z,3.10
2023-10-17T04:14:09.745Z,3.10
2023-10-17T04:15:44.288Z,3.10
2023-10-17T04:17:17.475Z,3.00
2023-10-17T04:18:56.230Z,3.00
2023-10-17T04:20:37.394Z,3.00
2023-10-17T04:22:21.808Z,3.00
2023-10-17T04:23:54.857Z,2.90
2023-10-17T04:25:35.285Z,2.90
2023-10-17T04:27:07.925Z,2.90
2023-10-17T04:28:42.325Z,2.80
2023-10-17T04:30:19.202Z,2.80
2023-10-17T04:31:58.077Z,2.70
2023-10-17T04:33:30.218Z,2.70
2023-10-17T04:35:04.151Z,2.70
2023-10-17T04:36:38.782Z,2.70
2023-10-17T04:38:17.729Z,2.70
2023-10-17T04:39:49.863Z,2.70
2023-10-17T04:41:37.241Z,2.70
2023-10-17T04:43:27.564Z,2.60
2023-10-17T04:45:06.793Z,2.60
2023-10-17T04:46:50.711Z,2.60
2023-10-17T04:48:33.323Z,2.50
2023-10-17T04:50:12.409Z,2.50
2023-10-17T04:51:46.743Z,2.50
2023-10-17T04:53:20.957Z,2.40
2023-10-17T04:54:55.590Z,2.40
2023-10-17T04:56:41.462Z,2.40
2023-10-17T04:58:31.877Z,2.40
2023-10-17T05:00:12.018Z,2.40
2023-10-17T05:01:48.172Z,2.50
2023-10-17T05:03:28.788Z,2.50
2023-10-17T05:05:19.542Z,2.50
2023-10-17T05:07:17.570Z,2.60
2023-10-17T05:09:02.380Z,2.70
2023-10-17T05:10:53.121Z,2.70
2023-10-17T05:12:43.761Z,2.70
2023-10-17T05:14:34.238Z,2.70
2023-10-17T05:16:24.588Z,2.80
2023-10-17T05:18:15.333Z,2.70
2023-10-17T05:20:05.693Z,2.80
2023-10-17T05:21:56.267Z,2.80
2023-10-17T05:23:48.065Z,2.80
2023-10-17T05:25:41.709Z,2.80
2023-10-17T05:27:32.384Z,2.90
2023-10-17T05:29:22.968Z,2.90
2023-10-17T05:31:13.537Z,3.00
2023-10-17T05:33:04.313Z,3.00
2023-10-17T05:34:54.704Z,3.10
2023-10-17T05:36:59.700Z,3.10
2023-10-17T05:38:51.490Z,3.10
2023-10-17T05:40:43.765Z,3.10
2023-10-17T05:42:35.178Z,3.20
2023-10-17T05:44:26.058Z,3.20
2023-10-17T05:46:17.482Z,3.20
2023-10-17T05:48:08.108Z,3.20
2023-10-17T05:49:58.702Z,3.10
2023-10-17T05:51:49.676Z,3.10
2023-10-17T05:53:40.205Z,3.10
2023-10-17T05:55:33.816Z,3.20
2023-10-17T05:57:25.846Z,3.20
2023-10-17T05:59:16.222Z,3.20
2023-10-17T06:01:06.730Z,3.20
2023-10-17T06:02:57.481Z,3.30
2023-10-17T06:04:48.103Z,3.40
2023-10-17T06:06:43.608Z,3.40
2023-10-17T06:08:33.910Z,3.50
2023-10-17T06:10:24.773Z,3.50
2023-10-17T06:12:16.341Z,3.50
2023-10-17T06:14:06.932Z,3.60
2023-10-17T06:15:57.535Z,3.60
2023-10-17T06:17:30.525Z,3.60
2023-10-17T06:19:03.083Z,3.70
2023-10-17T06:21:06.888Z,3.80
2023-10-17T06:22:53.790Z,3.80
2023-10-17T06:24:40.664Z,3.80
2023-10-17T06:26:27.666Z,3.90
2023-10-17T06:28:19.373Z,4.00
2023-10-17T06:30:27.788Z,4.10
2023-10-17T06:32:16.311Z,4.20
2023-10-17T06:33:49.359Z,4.20
2023-10-17T06:35:22.392Z,4.30
2023-10-17T06:37:00.661Z,4.40
2023-10-17T06:38:46.341Z,4.50
2023-10-17T06:40:18.476Z,4.50
2023-10-17T06:41:53.735Z,4.60
2023-10-17T06:43:29.697Z,4.70
2023-10-17T06:45:08.646Z,4.70
2023-10-17T06:46:49.643Z,4.80
2023-10-17T06:48:32.950Z,4.90
2023-10-17T06:50:35.245Z,4.90
2023-10-17T06:52:20.335Z,4.90
2023-10-17T06:53:56.349Z,5.00
2023-10-17T06:55:31.095Z,5.00
2023-10-17T06:57:11.518Z,5.10
2023-10-17T06:58:46.330Z,5.10
2023-10-17T07:00:25.628Z,5.20
2023-10-17T07:02:12.471Z,5.30
2023-10-17T07:03:46.604Z,5.20
2023-10-17T07:05:22.799Z,5.30
2023-10-17T07:06:55.755Z,5.30
2023-10-17T07:08:37.309Z,5.40
2023-10-17T07:10:18.563Z,5.50
2023-10-17T07:11:53.864Z,5.60
2023-10-17T07:13:55.843Z,5.70
2023-10-17T07:15:31.210Z,5.70
2023-10-17T07:17:18.568Z,5.80
2023-10-17T07:18:52.865Z,5.90
2023-10-17T07:20:31.503Z,6.00
2023-10-17T07:22:12.678Z,6.00
2023-10-17T07:23:47.463Z,6.00
2023-10-17T07:25:21.022Z,6.10
2023-10-17T07:26:53.516Z,6.10
2023-10-17T07:28:26.706Z,6.10
2023-10-17T07:30:02.120Z,6.20
2023-10-17T07:31:37.392Z,6.20
2023-10-17T07:33:09.777Z,6.30
2023-10-17T07:34:44.919Z,6.30
2023-10-17T07:36:18.044Z,6.40
2023-10-17T07:37:55.035Z,6.40
2023-10-17T07:39:31.162Z,6.50
2023-10-17T07:41:13.994Z,6.60
2023-10-17T07:42:47.801Z,6.50
2023-10-17T07:44:21.081Z,6.60
2023-10-17T07:45:57.054Z,6.70
2023-10-17T07:47:34.831Z,6.80
2023-10-17T07:49:10.673Z,6.80
2023-10-17T07:50:42.661Z,6.80
2023-10-17T07:52:18.521Z,6.80
2023-10-17T07:53:50.489Z,6.90
2023-10-17T07:55:36.479Z,6.90
2023-10-17T07:57:18.680Z,6.90
2023-10-17T07:58:58.014Z,7.00
2023-10-17T08:00:34.998Z,7.00
2023-10-17T08:02:20.286Z,7.10
2023-10-17T08:03:58.495Z,7.10
2023-10-17T08:05:38.352Z,7.20
2023-10-17T08:07:14.447Z,7.20
2023-10-17T08:08:47.364Z,7.30
2023-10-17T08:10:30.782Z,7.40
2023-10-17T08:12:05.925Z,7.40
2023-10-17T08:13:38.465Z,7.30
2023-10-17T08:15:20.867Z,7.20
2023-10-17T08:16:56.334Z,7.20
2023-10-17T08:18:40.327Z,7.30
2023-10-17T08:20:27.589Z,7.30
2023-10-17T08:22:11.753Z,7.40
2023-10-17T08:23:44.156Z,7.50
2023-10-17T08:25:21.862Z,7.60
2023-10-17T08:27:14.280Z,7.70
2023-10-17T08:28:51.678Z,7.80
2023-10-17T08:30:44.425Z,7.90
2023-10-17T08:32:38.283Z,8.10
2023-10-17T08:34:13.705Z,8.20
2023-10-17T08:35:52.512Z,8.40
2023-10-17T08:37:28.697Z,8.50
2023-10-17T08:39:04.588Z,8.60
2023-10-17T08:40:41.525Z,8.70
2023-10-17T08:42:15.316Z,8.70
2023-10-17T08:43:47.421Z,8.80
2023-10-17T08:45:21.355Z,8.80
2023-10-17T08:46:55.568Z,8.90
2023-10-17T08:48:29.649Z,9.00
2023-10-17T08:50:06.753Z,9.10
2023-10-17T08:51:40.033Z,9.10
2023-10-17T08:53:14.865Z,9.20
2023-10-17T08:54:48.923Z,9.20
2023-10-17T08:56:22.085Z,9.20
2023-10-17T08:57:54.126Z,9.30
2023-10-17T08:59:52.625Z,9.40
2023-10-17T09:01:24.692Z,9.50
2023-10-17T09:03:04.162Z,9.60
2023-10-17T09:04:39.403Z,9.70
2023-10-17T09:06:33.353Z,9.80
2023-10-17T09:08:12.832Z,9.90
2023-10-17T09:09:44.947Z,10.00
2023-10-17T09:11:30.443Z,10.00
2023-10-17T09:13:21.095Z,10.00
2023-10-17T09:14:53.509Z,10.10
2023-10-17T09:16:35.532Z,10.10
2023-10-17T09:18:09.596Z,10.20
2023-10-17T09:19:47.390Z,10.40
2023-10-17T09:21:22.667Z,10.40
2023-10-17T09:22:55.297Z,10.30
2023-10-17T09:24:33.730Z,10.40
2023-10-17T09:26:11.348Z,10.50
2023-10-17T09:27:45.595Z,10.60
2023-10-17T09:29:20.080Z,10.70
2023-10-17T09:31:04.164Z,10.90
2023-10-17T09:32:38.963Z,11.10
2023-10-17T09:34:14.705Z,11.10
2023-10-17T09:35:49.530Z,11.10
2023-10-17T09:37:23.011Z,11.00
2023-10-17T09:38:58.736Z,11.00
2023-10-17T09:40:32.997Z,11.00
2023-10-17T09:42:06.745Z,10.90
2023-10-17T09:43:42.990Z,10.90
2023-10-17T09:45:32.671Z,11.00
2023-10-17T09:47:11.210Z,11.10
2023-10-17T09:48:46.591Z,11.20
2023-10-17T09:50:22.381Z,11.30
2023-10-17T09:51:56.245Z,11.30
2023-10-17T09:53:34.924Z,11.30
2023-10-17T09:55:13.344Z,11.30
2023-10-17T09:56:49.276Z,11.40
2023-10-17T09:58:25.246Z,11.50
2023-10-17T10:00:08.812Z,11.50
2023-10-17T10:01:43.709Z,11.60
2023-10-17T10:03:18.362Z,11.60
2023-10-17T10:04:52.208Z,11.70
2023-10-17T10:06:27.205Z,11.60
2023-10-17T10:08:03.994Z,11.60
2023-10-17T10:09:38.922Z,11.50
2023-10-17T10:11:12.542Z,11.50
2023-10-17T10:12:58.992Z,11.60
2023-10-17T10:14:42.042Z,11.70
2023-10-17T10:16:16.294Z,11.80
2023-10-17T10:17:50.483Z,11.80
2023-10-17T10:19:23.896Z,11.80
2023-10-17T10:20:56.415Z,11.80
2023-10-17T10:22:57.516Z,11.80
2023-10-17T10:24:33.204Z,11.70
2023-10-17T10:26:20.332Z,11.80
2023-10-17T10:28:27.342Z,11.90
2023-10-17T10:30:33.375Z,12.00
2023-10-17T10:32:07.974Z,12.20
2023-10-17T10:33:40.098Z,12.40
2023-10-17T10:35:14.909Z,12.60
2023-10-17T10:36:48.747Z,12.50
2023-10-17T10:38:24.194Z,12.60
2023-10-17T10:40:12.096Z,12.60
2023-10-17T10:42:00.373Z,12.60
2023-10-17T10:43:32.488Z,12.80
2023-10-17T10:45:05.878Z,12.90
2023-10-17T10:46:38.983Z,12.90
2023-10-17T10:48:13.110Z,12.90
2023-10-17T10:49:50.380Z,12.80
2023-10-17T10:51:22.608Z,12.80
2023-10-17T10:52:57.436Z,12.90
2023-10-17T10:54:51.654Z,12.90
2023-10-17T10:56:26.216Z,12.80
2023-10-17T10:58:04.742Z,12.80
2023-10-17T10:59:37.766Z,12.80
2023-10-17T11:01:10.748Z,12.80
2023-10-17T11:02:43.734Z,12.70
2023-10-17T11:04:16.929Z,12.60
2023-10-17T11:05:53.797Z,12.50
2023-10-17T11:07:26.978Z,12.40
2023-10-17T11:09:00.068Z,12.40
2023-10-17T11:10:32.861Z,12.30
2023-10-17T11:12:06.605Z,12.30
2023-10-17T11:13:41.549Z,12.30
2023-10-17T11:15:17.438Z,12.20
2023-10-17T11:16:52.506Z,12.20
2023-10-17T11:18:25.938Z,12.20
2023-10-17T11:19:59.091Z,12.20
2023-10-17T11:21:32.569Z,12.10
2023-10-17T11:23:08.756Z,12.10
2023-10-17T11:24:46.093Z,12.10
2023-10-17T11:26:28.238Z,12.10
2023-10-17T11:28:03.438Z,12.00
2023-10-17T11:29:38.077Z,12.10
2023-10-17T11:31:15.166Z,12.10
2023-10-17T11:32:48.185Z,12.00
2023-10-17T11:34:31.698Z,11.90
2023-10-17T11:36:05.046Z,11.80
2023-10-17T11:38:04.394Z,11.80
2023-10-17T11:39:43.409Z,11.80
2023-10-17T11:41:18.572Z,11.90
2023-10-17T11:42:54.515Z,11.90
2023-10-17T11:44:32.764Z,12.00
2023-10-17T11:46:13.713Z,12.10
2023-10-17T11:47:46.909Z,12.10
2023-10-17T11:49:22.372Z,12.10
2023-10-17T11:51:14.062Z,12.10
2023-10-17T11:52:46.198Z,12.10
2023-10-17T11:56:03.216Z,12.50
2023-10-17T11:57:36.245Z,12.60
2023-10-17T11:59:09.339Z,12.60
2023-10-17T12:00:42.644Z,12.50
2023-10-17T12:02:16.855Z,12.40
2023-10-17T12:03:52.437Z,12.40
2023-10-17T12:05:29.153Z,12.40
2023-10-17T12:07:01.406Z,12.40
2023-10-17T12:08:34.491Z,12.30
2023-10-17T12:10:08.040Z,12.20
2023-10-17T12:11:41.182Z,12.20
2023-10-17T12:13:17.700Z,12.10
2023-10-17T12:14:50.669Z,12.00
2023-10-17T12:16:24.604Z,12.00
2023-10-17T12:17:59.125Z,11.90
2023-10-17T12:19:31.183Z,12.00
2023-10-17T12:21:05.590Z,11.90
2023-10-17T12:22:37.651Z,12.00
2023-10-17T12:24:13.450Z,11.90
2023-10-17T12:25:45.998Z,11.80
2023-10-17T12:27:21.611Z,11.80
2023-10-17T12:28:57.926Z,11.70
2023-10-17T12:30:37.228Z,11.80
2023-10-17T12:32:12.287Z,11.80
2023-10-17T12:33:46.294Z,11.90
2023-10-17T12:35:22.624Z,11.90
2023-10-17T12:36:54.990Z,11.90
2023-10-17T12:38:34.717Z,11.90
2023-10-17T12:40:19.840Z,11.90
2023-10-17T12:41:52.832Z,12.10
2023-10-17T12:43:24.871Z,12.20
2023-10-17T12:44:58.881Z,12.10
2023-10-17T12:46:32.044Z,12.20
2023-10-17T12:48:07.036Z,12.20
2023-10-17T12:49:40.792Z,12.20
2023-10-17T12:51:13.930Z,12.20
2023-10-17T12:52:45.993Z,12.20
2023-10-17T12:54:19.017Z,12.30
2023-10-17T12:55:51.067Z,12.50
2023-10-17T12:57:24.710Z,12.50
2023-10-17T12:58:56.706Z,12.60
2023-10-17T13:00:32.089Z,12.60
2023-10-17T13:02:05.044Z,12.60
2023-10-17T13:03:39.511Z,12.50
2023-10-17T13:05:14.058Z,12.50
2023-10-17T13:06:47.351Z,12.50
2023-10-17T13:08:19.424Z,12.50
2023-10-17T13:09:52.438Z,12.50
2023-10-17T13:11:24.910Z,12.50
2023-10-17T13:13:00.141Z,12.40
2023-10-17T13:14:32.327Z,12.30
2023-10-17T13:17:38.640Z,12.10
2023-10-17T13:19:17.624Z,12.10
2023-10-17T13:21:10.644Z,12.10
2023-10-17T13:22:47.794Z,12.20
2023-10-17T13:24:20.778Z,12.10
2023-10-17T13:25:54.743Z,12.10
2023-10-17T13:27:27.781Z,12.10
2023-10-17T13:28:59.979Z,12.00
2023-10-17T13:30:33.839Z,11.90
2023-10-17T13:32:08.533Z,11.90
2023-10-17T13:33:43.230Z,12.00
2023-10-17T13:35:15.596Z,12.10
2023-10-17T13:36:49.978Z,12.00
2023-10-17T13:38:23.051Z,12.00
2023-10-17T13:39:55.316Z,12.10
2023-10-17T13:41:28.371Z,12.10
2023-10-17T13:43:01.807Z,11.90
2023-10-17T13:44:35.328Z,11.70
2023-10-17T13:46:09.429Z,11.60
2023-10-17T13:47:42.816Z,11.40
2023-10-17T13:49:14.696Z,11.20
2023-10-17T13:50:47.716Z,11.10
2023-10-17T13:52:21.974Z,11.00
2023-10-17T13:53:54.216Z,10.80
2023-10-17T13:55:27.364Z,10.80
2023-10-17T13:56:59.428Z,10.80
2023-10-17T13:58:35.373Z,10.70
2023-10-17T14:00:10.262Z,10.80
2023-10-17T14:01:47.996Z,10.80
2023-10-17T14:03:23.507Z,10.90
2023-10-17T14:04:56.842Z,10.90
2023-10-17T14:06:29.303Z,10.90
2023-10-17T14:08:03.649Z,10.90
2023-10-17T14:09:36.162Z,10.90
2023-10-17T14:11:09.224Z,10.90
2023-10-17T14:12:41.689Z,10.90
2023-10-17T14:14:14.811Z,10.90
2023-10-17T14:15:46.995Z,10.90
2023-10-17T14:17:22.137Z,10.90
2023-10-17T14:19:05.351Z,10.90
2023-10-17T14:20:41.494Z,10.90
2023-10-17T14:22:24.380Z,10.80
2023-10-17T14:24:05.580Z,10.80
2023-10-17T14:25:55.943Z,10.80
2023-10-17T14:27:33.032Z,10.80
2023-10-17T14:29:05.356Z,10.90
2023-10-17T14:30:41.787Z,10.80
2023-10-17T14:32:15.156Z,10.80
2023-10-17T14:33:47.950Z,10.90
2023-10-17T14:35:19.925Z,10.80
2023-10-17T14:36:53.847Z,10.80
2023-10-17T14:38:27.121Z,10.80
2023-10-17T14:40:01.768Z,10.80
2023-10-17T14:41:36.432Z,10.80
2023-10-17T14:43:13.293Z,10.80
2023-10-17T14:44:47.953Z,10.80
2023-10-17T14:46:21.735Z,10.80
2023-10-17T14:47:55.849Z,10.70
2023-10-17T14:49:29.253Z,10.80
2023-10-17T14:51:02.453Z,10.70
2023-10-17T14:52:35.997Z,10.70
2023-10-17T14:54:09.420Z,10.70
2023-10-17T14:55:43.781Z,10.70
2023-10-17T14:57:17.996Z,10.70
2023-10-17T14:58:52.333Z,10.70
2023-10-17T15:00:24.517Z,10.70
2023-10-17T15:01:57.518Z,10.70
2023-10-17T15:03:31.716Z,10.70
2023-10-17T15:05:05.069Z,10.70
2023-10-17T15:06:37.972Z,10.70
2023-10-17T15:08:12.290Z,10.70
2023-10-17T15:09:44.311Z,10.60
2023-10-17T15:11:21.541Z,10.60
2023-10-17T15:12:55.270Z,10.50
2023-10-17T15:14:28.911Z,10.60
2023-10-17T15:16:01.398Z,10.50
2023-10-17T15:17:36.906Z,10.50
2023-10-17T15:19:10.382Z,10.40
2023-10-17T15:20:43.626Z,10.40
2023-10-17T15:22:16.103Z,10.40
2023-10-17T15:23:49.292Z,10.40
2023-10-17T15:25:22.400Z,10.30
2023-10-17T15:26:58.414Z,10.30
2023-10-17T15:28:32.138Z,10.30
2023-10-17T15:30:04.826Z,10.20
2023-10-17T15:31:37.772Z,10.20
2023-10-17T15:33:09.747Z,10.10
2023-10-17T15:34:42.651Z,10.10
2023-10-17T15:36:15.176Z,10.00
2023-10-17T15:37:49.606Z,10.00
2023-10-17T15:39:28.949Z,9.90
2023-10-17T15:41:03.470Z,9.90
2023-10-17T15:42:38.110Z,9.80
2023-10-17T15:44:11.522Z,9.80
2023-10-17T15:45:53.186Z,9.70
2023-10-17T15:47:26.304Z,9.70
2023-10-17T15:48:58.409Z,9.60
2023-10-17T15:50:31.401Z,9.50
2023-10-17T15:52:05.186Z,9.50
2023-10-17T15:53:38.708Z,9.50
2023-10-17T15:55:11.025Z,9.50
2023-10-17T15:56:45.308Z,9.50
2023-10-17T15:58:18.677Z,9.50
2023-10-17T15:59:51.720Z,9.40
2023-10-17T16:01:24.701Z,9.40
2023-10-17T16:02:56.767Z,9.40
2023-10-17T16:04:32.124Z,9.40
2023-10-17T16:06:06.833Z,9.30
2023-10-17T16:07:41.471Z,9.20
2023-10-17T16:09:16.870Z,9.20
2023-10-17T16:10:54.917Z,9.10
2023-10-17T16:12:28.130Z,9.10
2023-10-17T16:14:04.627Z,9.00
2023-10-17T16:15:37.009Z,8.90
2023-10-17T16:17:09.961Z,8.90
2023-10-17T16:18:42.000Z,8.80
2023-10-17T16:20:15.343Z,8.70
2023-10-17T16:21:47.164Z,8.70
2023-10-17T16:23:20.247Z,8.60
2023-10-17T16:24:53.572Z,8.50
2023-10-17T16:26:25.400Z,8.40
2023-10-17T16:27:58.424Z,8.40
2023-10-17T16:29:31.930Z,8.30
2023-10-17T16:31:08.746Z,8.30
2023-10-17T16:32:41.226Z,8.20
2023-10-17T16:34:15.775Z,8.20
2023-10-17T16:35:47.869Z,8.10
2023-10-17T16:37:22.596Z,8.10
2023-10-17T16:38:55.661Z,8.00
2023-10-17T16:40:27.709Z,8.00
2023-10-17T16:42:01.699Z,7.90
2023-10-17T16:43:33.658Z,7.90
2023-10-17T16:45:09.428Z,7.90
2023-10-17T16:46:42.865Z,7.90
2023-10-17T16:48:15.937Z,7.90
2023-10-17T16:49:47.948Z,7.90
2023-10-17T16:51:21.014Z,7.90
2023-10-17T16:52:53.131Z,7.90
2023-10-17T16:54:26.062Z,8.00
2023-10-17T16:55:58.253Z,8.00
2023-10-17T16:57:31.387Z,8.00
2023-10-17T16:59:05.589Z,8.00
2023-10-17T17:00:39.352Z,8.00
2023-10-17T17:02:12.396Z,8.00
2023-10-17T17:03:46.099Z,8.00
2023-10-17T17:05:19.260Z,7.90
2023-10-17T17:06:51.402Z,7.90
2023-10-17T17:08:24.418Z,7.90
2023-10-17T17:09:57.516Z,7.90
2023-10-17T17:11:30.551Z,7.90
2023-10-17T17:13:04.386Z,8.00
2023-10-17T17:14:38.149Z,7.90
2023-10-17T17:16:12.753Z,7.90
2023-10-17T17:17:46.060Z,7.90
2023-10-17T17:19:20.443Z,7.80
2023-10-17T17:20:54.100Z,7.80
2023-10-17T17:22:28.446Z,7.80
2023-10-17T17:24:08.114Z,7.80
2023-10-17T17:25:42.590Z,7.70
2023-10-17T17:27:16.915Z,7.70
2023-10-17T17:28:48.897Z,7.60
2023-10-17T17:30:21.909Z,7.60
2023-10-17T17:31:57.007Z,7.60
2023-10-17T17:33:30.053Z,7.50
2023-10-17T17:35:03.141Z,7.50
2023-10-17T17:36:35.350Z,7.40
2023-10-17T17:38:09.777Z,7.30
2023-10-17T17:39:43.763Z,7.30
2023-10-17T17:41:15.845Z,7.20
2023-10-17T17:42:49.825Z,7.20
2023-10-17T17:44:22.645Z,7.20
2023-10-17T17:45:55.930Z,7.20
2023-10-17T17:47:29.443Z,7.20
2023-10-17T17:49:03.116Z,7.20
2023-10-17T17:50:37.621Z,7.10
2023-10-17T17:52:11.677Z,7.10
2023-10-17T17:53:44.213Z,7.00
2023-10-17T17:55:17.878Z,7.00
2023-10-17T17:56:50.951Z,6.90
2023-10-17T17:58:23.019Z,6.90
2023-10-17T17:59:56.430Z,6.80
2023-10-17T18:01:28.987Z,6.80
2023-10-17T18:03:03.474Z,6.80
2023-10-17T18:04:35.575Z,6.70
2023-10-17T18:06:10.288Z,6.70
2023-10-17T18:07:42.286Z,6.70
2023-10-17T18:09:17.512Z,6.60
2023-10-17T18:10:50.681Z,6.60
2023-10-17T18:12:23.755Z,6.50
2023-10-17T18:13:56.111Z,6.50
2023-10-17T18:15:34.725Z,6.50
2023-10-17T18:17:07.100Z,6.50
2023-10-17T18:18:42.177Z,6.50
2023-10-17T18:20:14.325Z,6.50
2023-10-17T18:21:47.357Z,6.40
2023-10-17T18:23:19.552Z,6.40
2023-10-17T18:24:52.650Z,6.30
2023-10-17T18:26:24.682Z,6.30
2023-10-17T18:27:57.820Z,6.30
2023-10-17T18:29:31.051Z,6.20
2023-10-17T18:31:09.662Z,6.20
2023-10-17T18:32:43.022Z,6.20
2023-10-17T18:34:16.502Z,6.20
2023-10-17T18:35:51.003Z,6.20
2023-10-17T18:37:24.358Z,6.10
2023-10-17T18:39:03.625Z,6.00
2023-10-17T18:40:38.032Z,6.00
2023-10-17T18:42:10.972Z,5.90
2023-10-17T18:43:43.708Z,5.90
2023-10-17T18:45:17.139Z,5.90
2023-10-17T18:46:49.355Z,5.90
2023-10-17T18:48:22.663Z,5.90
2023-10-17T18:49:57.178Z,5.90
2023-10-17T18:51:29.158Z,5.80
2023-10-17T18:53:02.206Z,5.80
2023-10-17T18:54:34.276Z,5.80
2023-10-17T18:56:09.252Z,5.70
2023-10-17T18:57:43.053Z,5.70
2023-10-17T18:59:16.351Z,5.70
2023-10-17T19:00:56.745Z,5.60
2023-10-17T19:02:40.202Z,5.60
2023-10-17T19:04:15.800Z,5.50
2023-10-17T19:05:49.342Z,5.50
2023-10-17T19:07:22.713Z,5.40
2023-10-17T19:08:54.836Z,5.40
2023-10-17T19:10:28.362Z,5.40
2023-10-17T19:12:00.356Z,5.40
2023-10-17T19:13:34.166Z,5.40
2023-10-17T19:15:08.845Z,5.30
2023-10-17T19:16:42.233Z,5.40
2023-10-17T19:18:14.314Z,5.40
2023-10-17T19:19:48.378Z,5.40
2023-10-17T19:21:21.657Z,5.40
2023-10-17T19:22:54.951Z,5.30
2023-10-17T19:24:27.912Z,5.30
2023-10-17T19:26:07.432Z,5.40
2023-10-17T19:27:40.840Z,5.30
2023-10-17T19:29:14.527Z,5.30
2023-10-17T19:30:46.822Z,5.30
2023-10-17T19:32:20.039Z,5.20
2023-10-17T19:33:54.705Z,5.20
2023-10-17T19:35:27.175Z,5.10
2023-10-17T19:37:01.493Z,5.10
2023-10-17T19:38:33.566Z,5.10
2023-10-17T19:40:08.861Z,5.00
2023-10-17T19:41:41.594Z,5.00
2023-10-17T19:43:15.042Z,5.00
2023-10-17T19:44:48.025Z,5.00
2023-10-17T19:46:20.118Z,5.00
2023-10-17T19:47:53.808Z,4.90
2023-10-17T19:49:25.830Z,4.90
2023-10-17T19:50:58.772Z,4.80
2023-10-17T19:52:32.121Z,4.80
2023-10-17T19:54:05.055Z,4.80
2023-10-17T19:55:41.350Z,4.70
2023-10-17T19:57:14.058Z,4.70
2023-10-17T19:58:47.130Z,4.70
2023-10-17T20:00:23.777Z,4.70
2023-10-17T20:01:57.290Z,4.70
2023-10-17T20:03:30.337Z,4.70
2023-10-17T20:05:02.605Z,4.70
2023-10-17T20:06:36.723Z,4.70
2023-10-17T20:08:10.135Z,4.60
2023-10-17T20:09:42.969Z,4.60
2023-10-17T20:11:15.555Z,4.60
2023-10-17T20:12:48.523Z,4.50
2023-10-17T20:14:20.587Z,4.50
2023-10-17T20:15:53.826Z,4.50
2023-10-17T20:17:25.875Z,4.50
2023-10-17T20:18:59.079Z,4.50
2023-10-17T20:20:32.238Z,4.50
2023-10-17T20:22:07.249Z,4.60
2023-10-17T20:23:40.749Z,4.60
2023-10-17T20:25:16.030Z,4.50
2023-10-17T20:26:49.289Z,4.50
2023-10-17T20:28:22.356Z,4.50
2023-10-17T20:29:55.300Z,4.40
2023-10-17T20:31:28.589Z,4.30
2023-10-17T20:33:01.966Z,4.30
2023-10-17T20:34:34.073Z,4.20
2023-10-17T20:36:07.809Z,4.20
2023-10-17T20:37:39.834Z,4.20
2023-10-17T20:39:14.194Z,4.10
2023-10-17T20:40:47.109Z,4.10
2023-10-17T20:42:19.028Z,4.10
2023-10-17T20:43:52.308Z,4.10
2023-10-17T20:45:24.354Z,4.00
2023-10-17T20:46:57.472Z,4.00
2023-10-17T20:48:31.265Z,4.00
2023-10-17T20:50:03.378Z,4.00
2023-10-17T20:51:37.271Z,4.00
2023-10-17T20:53:11.004Z,4.00
2023-10-17T20:54:45.433Z,3.90
2023-10-17T20:56:38.120Z,4.00
2023-10-17T20:58:13.646Z,4.00
2023-10-17T20:59:46.443Z,3.90
2023-10-17T21:01:19.419Z,3.90
2023-10-17T21:02:52.850Z,3.90
2023-10-17T21:04:24.695Z,3.90
2023-10-17T21:05:59.137Z,3.80
2023-10-17T21:07:31.172Z,3.80
2023-10-17T21:09:05.783Z,3.70
2023-10-17T21:10:42.998Z,3.70
2023-10-17T21:12:16.642Z,3.70
2023-10-17T21:13:48.804Z,3.80
2023-10-17T21:15:25.874Z,3.80